Capitol Logistics 796


SBGR
Guarulhos International Airport
Sao Paulo, BR
KMIA
Miami International Airport
Miami, US

Activity Log

Date Flight Route Aircraft Duration
09/29/2019 CPX796 UKBE1C UKBEV ASTOB UM417 OBGAT UZ21 VUMPI UL795 URSUS FLIPR6 B744 8h 38m

Route Details

Aircraft Information
Primary: Boeing 747-400BCF
Backup: Boeing 777-200LRF
Route Data
Distance: 3554nm
Sched. Duration: 8h 44m
Avg. Duration: 8h 38m (-7m)
Times Flown: 1
Recm'd Route: UKBE1C UKBEV ASTOB UM417 OBGAT UZ21 VUMPI UL795 URSUS FLIPR6
Planned Altitude: 34,000ft
Origin Wx: SBGR 231400Z 11006KT 9999 OVC023 21/16 Q1022
Dest. Wx: KMIA 231353Z 06012G18KT 10SM FEW035 22/12 A3021 RMK AO2 SLP229 T02220122
Notes:

Financial History
Total Freight: 206,843lbs
Average Load: 206,843lbs/flt
Fuel Used: 66,000lbs
Avg. Fuel Used: 66,000lbs/flt
Fuel Expense: $66,000
Avg. Fuel Expense: $66,000
Avg. Fuel Cost: $1.00/lbs
Total Gross Income: $535,723
Pilot Pay: $149
Total Expenses: $57,910
Total Revenue: $409,750
Average Revenue: $535,723.38